Time;durP1;ratioP1;P1;durP2;ratioP2;P2;SDS_P1;SDS_P2;PMS_P1;PMS_P2;Temp;Humidity;BMP_temperature;BMP_pressure;BME280_temperature;BME280_humidity;BME280_pressure;Samples;Min_cycle;Max_cycle;Signal;HPM_P1;HPM_P2
2021/03/18 00:00:26;;;;;;;5.38;3.05;;;9.20;82.50;;;;;;4978611;28;20043;-72
2021/03/18 00:02:54;;;;;;;7.05;4.05;;;9.20;81.60;;;;;;4982765;28;20050;-72
2021/03/18 00:05:22;;;;;;;5.88;3.88;;;9.20;81.50;;;;;;4965241;28;20488;-71
2021/03/18 00:07:49;;;;;;;6.18;3.70;;;9.20;81.40;;;;;;4983502;28;20038;-72
2021/03/18 00:10:16;;;;;;;5.32;3.58;;;9.30;81.30;;;;;;4978173;28;20540;-72
2021/03/18 00:12:45;;;;;;;6.18;3.50;;;9.30;80.90;;;;;;4979865;28;20518;-72
2021/03/18 00:15:14;;;;;;;6.68;3.90;;;9.30;80.90;;;;;;4979757;28;20434;-72
2021/03/18 00:17:42;;;;;;;6.93;4.15;;;9.40;80.60;;;;;;4982665;28;20043;-71
2021/03/18 00:20:13;;;;;;;7.10;3.63;;;9.20;80.90;;;;;;4977967;28;20074;-71
2021/03/18 00:22:40;;;;;;;7.80;3.92;;;9.20;81.10;;;;;;4983123;28;20403;-71
2021/03/18 00:25:10;;;;;;;7.03;3.75;;;9.20;81.60;;;;;;5008792;28;20105;-71
2021/03/18 00:27:38;;;;;;;8.88;3.80;;;9.20;81.80;;;;;;4978788;28;20050;-71
2021/03/18 00:30:07;;;;;;;7.80;4.40;;;9.20;82.20;;;;;;4979741;28;20444;-71
2021/03/18 00:32:35;;;;;;;9.13;4.50;;;9.20;82.30;;;;;;4984443;28;20132;-71
2021/03/18 00:35:06;;;;;;;11.98;4.60;;;9.00;82.90;;;;;;4975653;28;20047;-71
2021/03/18 00:37:34;;;;;;;9.02;4.53;;;9.00;83.50;;;;;;4978872;28;20074;-72
2021/03/18 00:40:06;;;;;;;7.10;3.45;;;9.00;83.60;;;;;;4978764;28;20042;-72
2021/03/18 00:42:34;;;;;;;5.70;3.17;;;9.00;83.90;;;;;;4981440;28;20057;-70
2021/03/18 00:45:04;;;;;;;11.07;3.63;;;9.00;84.00;;;;;;4979866;28;20085;-71
2021/03/18 00:47:31;;;;;;;5.25;2.80;;;8.90;84.40;;;;;;4984360;28;20046;-71
2021/03/18 00:50:00;;;;;;;5.32;3.17;;;8.80;84.60;;;;;;4979859;28;20030;-71
2021/03/18 00:52:27;;;;;;;8.05;3.03;;;8.80;84.80;;;;;;4962160;28;20043;-71
2021/03/18 00:54:55;;;;;;;5.47;3.03;;;8.80;85.00;;;;;;4990603;28;20606;-71
2021/03/18 00:57:23;;;;;;;5.72;2.75;;;8.70;85.40;;;;;;4980369;28;20038;-72
2021/03/18 00:59:51;;;;;;;5.95;3.38;;;8.80;85.30;;;;;;4976033;28;20042;-72
2021/03/18 01:02:18;;;;;;;4.15;2.55;;;8.70;85.60;;;;;;4978825;28;20095;-72
2021/03/18 01:04:47;;;;;;;6.00;2.90;;;8.60;85.90;;;;;;4979613;28;20049;-72
2021/03/18 01:07:14;;;;;;;5.13;2.38;;;8.50;86.00;;;;;;4976785;28;20160;-72
2021/03/18 01:09:41;;;;;;;5.25;2.65;;;8.40;86.50;;;;;;4965354;28;20501;-71
2021/03/18 01:12:09;;;;;;;5.07;2.88;;;8.50;86.80;;;;;;4979060;28;20050;-72
2021/03/18 01:14:37;;;;;;;5.22;2.63;;;8.40;87.10;;;;;;4978776;28;20046;-72
2021/03/18 01:17:04;;;;;;;5.60;3.17;;;8.40;86.90;;;;;;4977243;28;20602;-71
2021/03/18 01:19:31;;;;;;;5.57;3.00;;;8.30;87.00;;;;;;4964610;28;20046;-72
2021/03/18 01:21:58;;;;;;;5.50;3.28;;;8.30;87.00;;;;;;4965428;28;20042;-71
2021/03/18 01:24:26;;;;;;;4.85;3.20;;;8.40;87.30;;;;;;4985278;28;20050;-71
2021/03/18 01:26:53;;;;;;;5.18;3.45;;;8.50;87.20;;;;;;5007838;28;20053;-71
2021/03/18 01:29:21;;;;;;;6.18;3.00;;;8.50;87.20;;;;;;4975286;28;20552;-72
2021/03/18 01:31:48;;;;;;;4.60;3.25;;;8.60;86.90;;;;;;4980458;28;20043;-71
2021/03/18 01:34:16;;;;;;;6.03;3.30;;;8.50;87.00;;;;;;4974820;28;20034;-71
2021/03/18 01:36:43;;;;;;;5.50;2.90;;;8.50;87.20;;;;;;4980321;28;20054;-71
2021/03/18 01:39:10;;;;;;;6.75;3.40;;;8.50;87.30;;;;;;4984022;28;20046;-72
2021/03/18 01:41:37;;;;;;;5.38;3.30;;;8.40;87.40;;;;;;4977749;28;20065;-72
2021/03/18 01:44:05;;;;;;;5.38;2.92;;;8.40;87.40;;;;;;4980203;28;20046;-71
2021/03/18 01:46:34;;;;;;;4.03;2.78;;;8.30;87.70;;;;;;4978155;28;20061;-72
2021/03/18 01:49:01;;;;;;;5.93;3.25;;;8.20;88.10;;;;;;4982381;28;20105;-71
2021/03/18 01:51:29;;;;;;;5.30;3.05;;;8.20;88.10;;;;;;4980033;28;20646;-72
2021/03/18 01:53:56;;;;;;;5.88;3.03;;;8.20;88.40;;;;;;4979612;28;20118;-72
2021/03/18 01:56:24;;;;;;;4.20;2.63;;;8.10;88.80;;;;;;4994110;28;20145;-71
2021/03/18 01:58:51;;;;;;;4.93;2.70;;;8.10;89.00;;;;;;4979333;28;20107;-71
2021/03/18 02:01:18;;;;;;;4.45;2.60;;;8.10;88.90;;;;;;4974120;28;20042;-71
2021/03/18 02:03:48;;;;;;;5.03;2.90;;;8.10;89.10;;;;;;4979219;28;20221;-71
2021/03/18 02:06:16;;;;;;;4.22;2.88;;;8.10;89.30;;;;;;4976309;28;20500;-72
2021/03/18 02:08:43;;;;;;;5.45;2.85;;;8.20;89.00;;;;;;4976606;28;20124;-72
2021/03/18 02:11:10;;;;;;;3.90;2.70;;;8.10;89.00;;;;;;4979048;28;20093;-72
2021/03/18 02:13:37;;;;;;;3.47;2.65;;;8.00;89.30;;;;;;4980100;28;20058;-71
2021/03/18 02:16:09;;;;;;;4.32;2.53;;;8.00;89.50;;;;;;4977650;28;20073;-71
2021/03/18 02:18:50;;;;;;;5.72;3.13;;;8.00;89.70;;;;;;4978931;28;20058;-72
2021/03/18 02:21:57;;;;;;;4.40;2.97;;;7.90;90.10;;;;;;4984759;28;20391;-72
2021/03/18 02:24:49;;;;;;;5.05;2.63;;;7.90;90.50;;;;;;4976699;28;20042;-72
2021/03/18 02:27:46;;;;;;;3.42;2.20;;;8.00;90.10;;;;;;4995396;28;20047;-73
2021/03/18 02:30:46;;;;;;;5.40;3.08;;;8.10;89.60;;;;;;5011707;28;20077;-72
2021/03/18 02:33:53;;;;;;;4.00;2.20;;;8.10;89.60;;;;;;4979769;28;20136;-73
2021/03/18 02:36:26;;;;;;;4.95;2.53;;;8.20;89.30;;;;;;4993646;28;20050;-73
2021/03/18 02:38:57;;;;;;;4.05;2.60;;;8.10;89.50;;;;;;4980529;28;20042;-72
2021/03/18 02:41:28;;;;;;;4.45;2.53;;;8.10;89.60;;;;;;4973760;28;20038;-72
2021/03/18 02:44:02;;;;;;;4.70;2.90;;;8.20;89.50;;;;;;4989240;28;20590;-73
2021/03/18 02:46:31;;;;;;;4.90;2.70;;;8.10;89.50;;;;;;4974799;28;20039;-73
2021/03/18 02:49:02;;;;;;;4.20;2.67;;;8.00;89.70;;;;;;4980923;28;20055;-72
2021/03/18 02:51:33;;;;;;;6.05;3.10;;;8.10;89.80;;;;;;4974014;28;20042;-72
2021/03/18 02:54:05;;;;;;;4.95;2.58;;;8.10;89.60;;;;;;4980271;28;20046;-73
2021/03/18 02:56:33;;;;;;;4.65;2.45;;;8.00;89.90;;;;;;4978473;28;20046;-72
2021/03/18 02:59:03;;;;;;;4.68;2.55;;;8.00;89.90;;;;;;4975905;28;20035;-72
2021/03/18 03:01:31;;;;;;;3.42;2.33;;;8.00;89.80;;;;;;4976376;28;20050;-72
2021/03/18 03:04:00;;;;;;;5.13;2.42;;;7.90;89.80;;;;;;4980031;28;20048;-73
2021/03/18 03:06:30;;;;;;;5.00;2.70;;;7.90;89.90;;;;;;4976914;28;20382;-72
2021/03/18 03:09:01;;;;;;;5.18;2.63;;;7.90;89.90;;;;;;4975356;28;20039;-72
2021/03/18 03:11:28;;;;;;;2.97;2.58;;;7.90;89.60;;;;;;4978047;28;20042;-73
2021/03/18 03:13:57;;;;;;;4.50;2.75;;;7.90;89.70;;;;;;4978616;28;20476;-73
2021/03/18 03:16:25;;;;;;;3.90;3.08;;;7.90;89.10;;;;;;4980278;28;20383;-72
2021/03/18 03:18:54;;;;;;;4.22;2.65;;;7.80;89.30;;;;;;4981774;28;20050;-73
2021/03/18 03:21:23;;;;;;;4.40;2.83;;;7.80;89.50;;;;;;4998659;28;20042;-72
2021/03/18 03:23:50;;;;;;;4.93;2.88;;;7.80;89.00;;;;;;4980790;28;20060;-73
2021/03/18 03:26:22;;;;;;;5.72;2.83;;;7.90;88.70;;;;;;4977438;28;20045;-72
2021/03/18 03:28:50;;;;;;;4.13;2.60;;;7.70;89.00;;;;;;4984569;28;20034;-73
2021/03/18 03:31:18;;;;;;;4.93;3.22;;;7.60;89.40;;;;;;4986757;28;20045;-73
2021/03/18 03:34:00;;;;;;;6.82;2.85;;;7.70;89.60;;;;;;4981445;28;20125;-72
2021/03/18 03:36:28;;;;;;;5.85;2.80;;;7.70;89.70;;;;;;4986334;28;20046;-72
2021/03/18 03:38:55;;;;;;;5.00;2.92;;;7.60;89.90;;;;;;4962843;28;20046;-72
2021/03/18 03:41:24;;;;;;;4.10;2.60;;;7.60;90.20;;;;;;4980158;28;20580;-72
2021/03/18 03:43:51;;;;;;;4.22;2.65;;;7.40;90.40;;;;;;4982819;28;20054;-73
2021/03/18 03:46:18;;;;;;;4.35;2.53;;;7.50;90.50;;;;;;4984652;28;20137;-73
2021/03/18 03:48:46;;;;;;;5.00;2.78;;;7.40;90.50;;;;;;5013812;28;20089;-73
2021/03/18 03:51:14;;;;;;;5.28;2.85;;;7.40;90.50;;;;;;4976096;28;20045;-73
2021/03/18 03:53:47;;;;;;;3.55;2.40;;;7.30;90.30;;;;;;4983416;28;20038;-73
2021/03/18 03:56:20;;;;;;;5.85;2.50;;;7.30;90.30;;;;;;4980659;28;20038;-72
2021/03/18 03:58:51;;;;;;;4.60;2.22;;;7.30;90.20;;;;;;4978671;28;20042;-72
2021/03/18 04:01:27;;;;;;;3.83;2.40;;;7.40;90.10;;;;;;4986280;28;20166;-73
2021/03/18 04:04:01;;;;;;;4.65;2.10;;;7.30;89.90;;;;;;4980850;28;20069;-72
2021/03/18 04:06:33;;;;;;;3.83;2.28;;;7.30;90.30;;;;;;4982342;28;20138;-72
2021/03/18 04:09:02;;;;;;;4.85;2.30;;;7.10;90.40;;;;;;4982356;28;20143;-73
2021/03/18 04:11:29;;;;;;;4.25;2.55;;;6.90;91.20;;;;;;4965859;28;20042;-73
2021/03/18 04:13:57;;;;;;;3.72;2.10;;;6.90;91.80;;;;;;4980579;28;20428;-72
2021/03/18 04:16:25;;;;;;;4.30;2.53;;;6.90;92.10;;;;;;4985031;28;20046;-72
2021/03/18 04:18:54;;;;;;;3.13;2.08;;;6.80;92.10;;;;;;4981479;28;20050;-72
2021/03/18 04:21:23;;;;;;;3.58;2.38;;;6.80;92.20;;;;;;4981803;28;20035;-72
2021/03/18 04:23:51;;;;;;;4.53;2.30;;;6.80;91.80;;;;;;4982741;28;20053;-73
2021/03/18 04:26:21;;;;;;;3.08;2.08;;;6.90;91.70;;;;;;4980823;28;20046;-73
2021/03/18 04:28:49;;;;;;;3.30;2.20;;;6.90;91.40;;;;;;4979915;28;20065;-73
2021/03/18 04:31:17;;;;;;;4.97;2.25;;;7.00;91.30;;;;;;4982006;28;20706;-73
2021/03/18 04:33:45;;;;;;;3.80;2.28;;;6.90;91.40;;;;;;4981624;28;20428;-73
2021/03/18 04:36:13;;;;;;;5.38;2.63;;;6.90;91.30;;;;;;4977038;28;20057;-72
2021/03/18 04:38:40;;;;;;;4.45;2.58;;;6.80;91.50;;;;;;4982452;28;20035;-72
2021/03/18 04:41:08;;;;;;;4.72;2.30;;;6.90;91.30;;;;;;4968067;28;20464;-73
2021/03/18 04:43:38;;;;;;;3.35;2.30;;;6.90;91.20;;;;;;4982530;28;20539;-72
2021/03/18 04:46:07;;;;;;;5.45;2.38;;;6.90;91.10;;;;;;4982104;28;20492;-72
2021/03/18 04:48:37;;;;;;;6.22;2.50;;;6.80;91.30;;;;;;4979179;28;20050;-72
2021/03/18 04:51:07;;;;;;;5.82;2.28;;;6.70;91.20;;;;;;4978790;28;20141;-73
2021/03/18 04:53:34;;;;;;;4.63;2.58;;;6.70;91.20;;;;;;4978214;28;20038;-72
2021/03/18 04:56:03;;;;;;;3.17;2.50;;;6.80;91.20;;;;;;4981181;28;20493;-72
2021/03/18 04:58:31;;;;;;;6.28;2.97;;;6.80;91.20;;;;;;4980175;28;20140;-73
2021/03/18 05:00:59;;;;;;;6.50;2.58;;;6.80;91.20;;;;;;4979706;28;20054;-72
2021/03/18 05:03:27;;;;;;;4.68;2.95;;;6.70;91.30;;;;;;4979550;28;20038;-72
2021/03/18 05:05:58;;;;;;;5.53;2.83;;;6.60;91.50;;;;;;4974723;28;20043;-72
2021/03/18 05:08:27;;;;;;;5.50;2.58;;;6.70;91.40;;;;;;4968715;28;20045;-72
2021/03/18 05:10:55;;;;;;;5.22;2.58;;;6.70;91.20;;;;;;4995909;28;20789;-73
2021/03/18 05:13:25;;;;;;;5.47;2.90;;;6.60;91.30;;;;;;4993102;28;20054;-73
2021/03/18 05:15:53;;;;;;;5.40;2.72;;;6.50;91.70;;;;;;4991724;28;20117;-72
2021/03/18 05:18:20;;;;;;;5.32;2.67;;;6.50;92.00;;;;;;4975261;28;20042;-73
2021/03/18 05:20:48;;;;;;;5.68;2.97;;;6.50;91.80;;;;;;4977500;28;20058;-73
2021/03/18 05:23:17;;;;;;;5.53;2.67;;;6.60;91.70;;;;;;4979190;28;20062;-73
2021/03/18 05:25:47;;;;;;;4.90;2.78;;;6.50;91.70;;;;;;4979557;28;20046;-73
2021/03/18 05:28:15;;;;;;;4.53;2.40;;;6.60;91.60;;;;;;4975755;28;20034;-73
2021/03/18 05:30:44;;;;;;;5.55;2.83;;;6.50;91.20;;;;;;4980351;28;20523;-73
2021/03/18 05:33:11;;;;;;;9.45;2.60;;;6.50;91.60;;;;;;4984211;28;20046;-73
2021/03/18 05:35:41;;;;;;;5.20;2.90;;;6.60;91.10;;;;;;4981318;28;20042;-72
2021/03/18 05:38:09;;;;;;;6.45;3.25;;;6.50;91.20;;;;;;4975574;28;20042;-72
2021/03/18 05:40:38;;;;;;;4.68;3.22;;;6.60;91.30;;;;;;4990622;28;20119;-72
2021/03/18 05:43:06;;;;;;;6.07;3.00;;;6.50;91.40;;;;;;4977171;28;20113;-72
2021/03/18 05:45:34;;;;;;;3.97;2.70;;;6.50;91.40;;;;;;4979846;28;21128;-72
2021/03/18 05:48:02;;;;;;;5.38;2.90;;;6.60;91.30;;;;;;4999294;28;20706;-73
2021/03/18 05:50:32;;;;;;;7.68;3.00;;;6.50;91.50;;;;;;4992359;28;20053;-73
2021/03/18 05:53:00;;;;;;;6.40;2.75;;;6.50;91.60;;;;;;4962924;28;20254;-72
2021/03/18 05:55:28;;;;;;;6.20;3.33;;;6.50;91.30;;;;;;4989649;28;20042;-72
2021/03/18 05:57:56;;;;;;;3.30;2.30;;;6.60;91.10;;;;;;4981144;28;20049;-72
2021/03/18 06:00:25;;;;;;;4.95;3.10;;;6.50;91.00;;;;;;4978885;28;20202;-73
2021/03/18 06:02:52;;;;;;;8.02;3.40;;;6.50;91.10;;;;;;4977979;28;20619;-73
2021/03/18 06:05:20;;;;;;;4.25;3.30;;;6.50;90.80;;;;;;4989067;28;20050;-73
2021/03/18 06:07:48;;;;;;;7.15;4.07;;;6.40;91.10;;;;;;4977792;28;20137;-73
2021/03/18 06:10:18;;;;;;;7.68;4.72;;;6.40;91.00;;;;;;4984877;28;20038;-73
2021/03/18 06:12:47;;;;;;;8.95;5.45;;;6.40;91.00;;;;;;4975558;28;20050;-73
2021/03/18 06:15:16;;;;;;;9.82;6.00;;;6.30;91.10;;;;;;4978845;28;20125;-72
2021/03/18 06:17:43;;;;;;;12.15;6.70;;;6.40;91.20;;;;;;4973170;28;20051;-72
2021/03/18 06:20:13;;;;;;;12.27;6.97;;;6.50;91.10;;;;;;4979603;28;20050;-72
2021/03/18 06:22:43;;;;;;;10.55;6.45;;;6.60;90.70;;;;;;4977576;28;20104;-73
2021/03/18 06:25:23;;;;;;;12.70;6.38;;;6.40;91.00;;;;;;4979044;28;20756;-73
2021/03/18 06:28:11;;;;;;;9.25;6.43;;;6.40;91.10;;;;;;4979258;28;20060;-72
2021/03/18 06:30:40;;;;;;;12.52;6.70;;;6.40;91.20;;;;;;4993196;28;21710;-72
2021/03/18 06:33:19;;;;;;;11.10;7.30;;;6.50;91.00;;;;;;4978342;28;20042;-73
2021/03/18 06:35:47;;;;;;;10.05;6.40;;;6.60;90.80;;;;;;4981097;28;20162;-72
2021/03/18 06:38:14;;;;;;;8.20;5.35;;;6.60;90.70;;;;;;4973494;28;20120;-73
2021/03/18 06:40:42;;;;;;;8.40;5.55;;;6.70;90.50;;;;;;4973630;28;20123;-72
2021/03/18 06:43:10;;;;;;;8.45;4.78;;;6.80;90.20;;;;;;4979355;28;20133;-73
2021/03/18 06:45:41;;;;;;;7.13;4.40;;;6.90;90.10;;;;;;4978762;28;20520;-72
2021/03/18 06:48:10;;;;;;;7.15;4.88;;;7.00;90.10;;;;;;4998977;28;20082;-73
2021/03/18 06:50:40;;;;;;;6.75;4.20;;;7.00;90.40;;;;;;4978894;28;20512;-73
2021/03/18 06:53:18;;;;;;;8.63;4.70;;;6.90;90.70;;;;;;4979592;28;20053;-72
2021/03/18 06:55:46;;;;;;;9.20;4.80;;;7.10;90.90;;;;;;4976855;28;20069;-73
2021/03/18 06:58:15;;;;;;;5.97;3.85;;;7.20;91.10;;;;;;4978303;28;20050;-73
2021/03/18 07:00:46;;;;;;;7.57;4.00;;;7.40;90.90;;;;;;4972488;28;20046;-73
2021/03/18 07:03:24;;;;;;;4.75;3.50;;;7.40;90.70;;;;;;4978697;28;20043;-73
2021/03/18 07:05:52;;;;;;;5.05;3.13;;;7.50;91.30;;;;;;4976773;28;20143;-72
2021/03/18 07:08:25;;;;;;;3.65;2.92;;;7.70;91.10;;;;;;4979130;28;20054;-72
2021/03/18 07:10:54;;;;;;;4.78;3.33;;;7.90;90.40;;;;;;4980132;28;20128;-72
2021/03/18 07:13:24;;;;;;;7.55;3.35;;;8.00;89.90;;;;;;4981086;28;20049;-73
2021/03/18 07:15:55;;;;;;;5.93;3.10;;;8.10;89.70;;;;;;4975984;28;20047;-72
2021/03/18 07:18:22;;;;;;;5.85;3.28;;;8.20;89.10;;;;;;4979952;28;20598;-73
2021/03/18 07:20:59;;;;;;;6.35;3.35;;;8.40;88.90;;;;;;4971921;28;20058;-73
2021/03/18 07:23:35;;;;;;;4.78;3.40;;;8.50;88.40;;;;;;4973238;28;20050;-73
2021/03/18 07:26:12;;;;;;;5.53;3.67;;;8.50;87.90;;;;;;4977325;28;20571;-73
2021/03/18 07:28:40;;;;;;;4.00;3.10;;;8.70;87.50;;;;;;4976376;28;20074;-73
2021/03/18 07:31:08;;;;;;;4.80;3.08;;;8.80;86.80;;;;;;4979186;28;20118;-73
2021/03/18 07:33:36;;;;;;;5.60;3.10;;;8.90;86.40;;;;;;4978613;28;20046;-73
2021/03/18 07:36:04;;;;;;;5.25;3.10;;;8.90;86.20;;;;;;4976058;28;20038;-73
2021/03/18 07:38:34;;;;;;;5.90;3.50;;;9.00;86.40;;;;;;4974785;28;20098;-73
2021/03/18 07:41:02;;;;;;;3.90;2.88;;;9.00;86.40;;;;;;4975903;28;20035;-73
2021/03/18 07:43:29;;;;;;;8.35;3.10;;;9.10;86.10;;;;;;4975775;28;20843;-73
2021/03/18 07:45:58;;;;;;;4.70;3.08;;;9.10;86.60;;;;;;4978066;28;20046;-73
2021/03/18 07:48:28;;;;;;;6.65;3.60;;;9.30;86.60;;;;;;4978538;28;20053;-73
2021/03/18 07:50:58;;;;;;;3.97;2.38;;;9.40;86.70;;;;;;4978879;28;20409;-73
2021/03/18 07:53:26;;;;;;;3.72;2.35;;;9.50;86.20;;;;;;4975956;28;20042;-73
2021/03/18 07:55:56;;;;;;;2.85;2.00;;;9.60;85.30;;;;;;4982723;28;20070;-73
2021/03/18 07:58:38;;;;;;;2.85;1.70;;;9.70;84.60;;;;;;4975482;28;20516;-73
2021/03/18 08:01:06;;;;;;;5.75;1.85;;;9.80;83.40;;;;;;4983433;28;20061;-73
2021/03/18 08:03:35;;;;;;;2.30;1.30;;;10.00;82.90;;;;;;4980133;28;20310;-73
2021/03/18 08:06:02;;;;;;;2.92;1.10;;;10.00;81.80;;;;;;4981407;28;20061;-73
2021/03/18 08:08:39;;;;;;;2.35;0.88;;;10.10;81.50;;;;;;4980258;28;20567;-73
2021/03/18 08:11:12;;;;;;;2.30;1.17;;;10.10;80.90;;;;;;4982346;28;20047;-73
2021/03/18 08:13:41;;;;;;;3.45;0.88;;;10.10;80.60;;;;;;4980038;28;20042;-73
2021/03/18 08:16:28;;;;;;;2.92;1.13;;;10.20;80.80;;;;;;4981562;28;20043;-73
2021/03/18 08:18:58;;;;;;;2.35;1.02;;;10.20;81.10;;;;;;4979546;28;20451;-73
2021/03/18 08:21:44;;;;;;;2.10;1.00;;;10.30;80.60;;;;;;4979456;28;20050;-73
2021/03/18 08:24:13;;;;;;;2.30;1.20;;;10.30;80.30;;;;;;4979759;28;20056;-77
2021/03/18 08:26:44;;;;;;;2.35;1.00;;;10.30;80.60;;;;;;4979530;28;20505;-72
2021/03/18 08:29:15;;;;;;;1.73;0.90;;;10.30;80.60;;;;;;4982281;28;20042;-73
2021/03/18 08:31:57;;;;;;;3.13;0.98;;;10.30;80.70;;;;;;4979138;28;20058;-73
2021/03/18 08:34:49;;;;;;;2.40;1.40;;;10.40;79.60;;;;;;4983066;28;20606;-73
2021/03/18 08:37:32;;;;;;;2.38;0.90;;;10.60;79.80;;;;;;4980110;28;20042;-72
2021/03/18 08:40:02;;;;;;;1.98;0.80;;;10.60;79.50;;;;;;4976424;28;20049;-73
2021/03/18 08:42:38;;;;;;;2.92;1.30;;;10.70;79.90;;;;;;4997357;28;20042;-73
2021/03/18 08:45:32;;;;;;;1.23;0.50;;;10.80;79.40;;;;;;4978036;28;20054;-73
2021/03/18 08:48:15;;;;;;;2.15;1.13;;;10.80;78.70;;;;;;4979743;28;20034;-78
2021/03/18 08:50:57;;;;;;;1.17;0.70;;;11.00;79.30;;;;;;4986053;28;20421;-73
2021/03/18 08:53:34;;;;;;;1.92;0.95;;;11.10;78.40;;;;;;5009518;28;20350;-74
2021/03/18 08:56:06;;;;;;;1.10;0.85;;;11.10;78.00;;;;;;4978577;28;20469;-74
2021/03/18 08:58:46;;;;;;;3.45;2.10;;;11.00;77.90;;;;;;4979768;28;20395;-73
2021/03/18 09:01:15;;;;;;;2.45;1.00;;;11.00;78.50;;;;;;4974777;28;20054;-73
2021/03/18 09:03:43;;;;;;;1.85;0.70;;;11.00;78.40;;;;;;4983433;28;20907;-74
2021/03/18 09:06:12;;;;;;;2.55;0.80;;;11.10;78.10;;;;;;4983082;28;20535;-74
2021/03/18 09:08:39;;;;;;;2.80;1.17;;;11.20;78.10;;;;;;5013812;28;20518;-73
2021/03/18 09:11:06;;;;;;;1.08;0.65;;;11.20;77.90;;;;;;5011393;28;20504;-74
2021/03/18 09:13:35;;;;;;;1.55;0.80;;;11.40;77.80;;;;;;4971505;28;20054;-74
2021/03/18 09:16:04;;;;;;;1.35;0.60;;;11.60;77.40;;;;;;4977493;28;20045;-74
2021/03/18 09:18:33;;;;;;;3.05;0.73;;;11.70;76.90;;;;;;4973917;28;20042;-73
2021/03/18 09:21:05;;;;;;;1.48;0.73;;;11.70;76.00;;;;;;4981063;28;20104;-74
2021/03/18 09:23:35;;;;;;;1.48;0.57;;;11.90;75.50;;;;;;4993118;28;20059;-73
2021/03/18 09:26:06;;;;;;;0.75;0.35;;;12.00;74.30;;;;;;5005069;28;20046;-74
2021/03/18 09:28:37;;;;;;;1.73;0.57;;;12.00;74.00;;;;;;4981971;28;20609;-74
2021/03/18 09:31:07;;;;;;;0.75;0.50;;;12.00;74.10;;;;;;4979074;28;20045;-74
2021/03/18 09:33:37;;;;;;;2.03;0.52;;;12.00;74.10;;;;;;4978641;28;20077;-74
2021/03/18 09:36:20;;;;;;;1.10;0.50;;;12.00;73.40;;;;;;4977414;28;20100;-74
2021/03/18 09:38:58;;;;;;;0.60;0.30;;;12.10;72.60;;;;;;4976306;28;20064;-74
2021/03/18 09:41:29;;;;;;;0.55;0.30;;;12.20;73.20;;;;;;5008291;28;20456;-73
2021/03/18 09:44:13;;;;;;;0.82;0.40;;;12.20;71.80;;;;;;4976966;28;20059;-74
2021/03/18 09:46:46;;;;;;;0.60;0.20;;;12.30;69.80;;;;;;4978221;28;20046;-72
2021/03/18 09:49:14;;;;;;;0.77;0.28;;;12.20;67.90;;;;;;4990733;28;20053;-73
2021/03/18 09:51:43;;;;;;;1.98;0.40;;;12.20;68.20;;;;;;4977271;28;20125;-73
2021/03/18 09:54:13;;;;;;;0.75;0.30;;;12.30;67.80;;;;;;4974698;28;20042;-73
2021/03/18 09:56:42;;;;;;;0.60;0.20;;;12.20;67.30;;;;;;4978386;28;20042;-73
2021/03/18 09:59:11;;;;;;;0.68;0.20;;;12.30;67.60;;;;;;4975568;28;20043;-73
2021/03/18 10:01:39;;;;;;;0.47;0.22;;;12.30;66.30;;;;;;4973733;28;20113;-74
2021/03/18 10:04:11;;;;;;;1.92;0.20;;;12.40;65.50;;;;;;4980050;28;20473;-73
2021/03/18 10:06:47;;;;;;;0.77;0.40;;;12.40;66.30;;;;;;4979277;28;20042;-75
2021/03/18 10:09:23;;;;;;;0.95;0.30;;;12.60;66.20;;;;;;4980146;28;20060;-74
2021/03/18 10:11:58;;;;;;;0.60;0.30;;;12.50;67.10;;;;;;4977473;28;20619;-74
2021/03/18 10:14:30;;;;;;;1.00;0.30;;;12.60;67.40;;;;;;4977764;28;20432;-74
2021/03/18 10:17:06;;;;;;;0.55;0.20;;;12.60;67.90;;;;;;4977139;28;20047;-74
2021/03/18 10:19:37;;;;;;;0.73;0.40;;;12.80;68.50;;;;;;4979090;28;20038;-74
2021/03/18 10:22:06;;;;;;;1.02;0.40;;;13.10;68.00;;;;;;4979670;28;20319;-74
2021/03/18 10:24:34;;;;;;;0.60;0.30;;;13.30;66.30;;;;;;4974182;28;20061;-74
2021/03/18 10:27:09;;;;;;;8.38;3.42;;;13.40;66.90;;;;;;4973762;28;20057;-73
2021/03/18 10:29:37;;;;;;;1.98;0.40;;;13.60;67.00;;;;;;4979546;28;20050;-73
2021/03/18 10:32:13;;;;;;;3.50;1.40;;;13.70;65.70;;;;;;4965341;28;20420;-81
2021/03/18 10:34:53;;;;;;;3.65;1.92;;;13.70;65.60;;;;;;4977073;28;20068;-74
2021/03/18 10:37:24;;;;;;;2.50;0.90;;;13.70;65.60;;;;;;4985191;28;20101;-73
2021/03/18 10:40:09;;;;;;;2.10;0.88;;;13.80;65.40;;;;;;4974243;28;20708;-73
2021/03/18 10:42:37;;;;;;;1.25;0.40;;;14.00;65.30;;;;;;4974086;28;20137;-74
2021/03/18 10:45:13;;;;;;;1.13;0.40;;;14.00;64.50;;;;;;4975694;28;20590;-74
2021/03/18 10:47:42;;;;;;;0.80;0.47;;;14.20;64.50;;;;;;4976242;28;20043;-73
2021/03/18 10:50:12;;;;;;;0.55;0.30;;;14.30;64.40;;;;;;4977727;28;20116;-74
2021/03/18 10:52:40;;;;;;;1.23;0.40;;;14.30;63.10;;;;;;4994186;28;20034;-73
2021/03/18 10:55:09;;;;;;;1.30;0.50;;;14.40;63.60;;;;;;4974838;28;20120;-75
2021/03/18 10:57:37;;;;;;;3.53;0.38;;;14.40;63.30;;;;;;4979643;28;20053;-76
2021/03/18 11:00:07;;;;;;;0.90;0.20;;;14.40;62.20;;;;;;4977827;28;20046;-75
2021/03/18 11:02:40;;;;;;;0.80;0.30;;;14.40;62.90;;;;;;4991544;28;20165;-74
2021/03/18 11:05:08;;;;;;;2.92;0.20;;;14.50;61.80;;;;;;4973918;28;20034;-75
2021/03/18 11:07:36;;;;;;;1.15;0.60;;;14.40;61.90;;;;;;4977391;28;20575;-78
2021/03/18 11:10:11;;;;;;;0.60;0.20;;;14.40;61.70;;;;;;4962044;28;20560;-74
2021/03/18 11:12:40;;;;;;;0.90;0.25;;;14.40;61.30;;;;;;4975770;28;20035;-74
2021/03/18 11:15:10;;;;;;;2.95;0.70;;;14.40;62.30;;;;;;4975349;28;20034;-74
2021/03/18 11:17:37;;;;;;;2.55;0.60;;;14.60;62.60;;;;;;4974765;28;20042;-75
2021/03/18 11:20:10;;;;;;;0.40;0.20;;;14.70;61.50;;;;;;5005308;28;20049;-76
2021/03/18 11:22:37;;;;;;;0.55;0.25;;;14.80;61.10;;;;;;4977681;28;20073;-76
2021/03/18 11:25:06;;;;;;;0.95;0.20;;;14.70;61.50;;;;;;4969704;28;20053;-74
2021/03/18 11:27:35;;;;;;;0.88;0.20;;;14.80;61.40;;;;;;4981586;28;20655;-75
2021/03/18 11:30:05;;;;;;;0.85;0.30;;;14.90;60.10;;;;;;4975392;28;20042;-76
2021/03/18 11:32:32;;;;;;;5.55;0.50;;;15.00;59.90;;;;;;4973259;28;20044;-75
2021/03/18 11:35:02;;;;;;;3.72;0.40;;;15.10;60.50;;;;;;4973409;28;20113;-74
2021/03/18 11:37:29;;;;;;;1.63;0.50;;;15.10;59.80;;;;;;4979090;28;20049;-75
2021/03/18 11:39:57;;;;;;;2.05;0.30;;;15.10;58.80;;;;;;4979323;28;20042;-75
2021/03/18 11:42:24;;;;;;;2.42;0.30;;;15.30;59.40;;;;;;4980791;28;20042;-74
2021/03/18 11:44:52;;;;;;;1.00;0.28;;;15.60;59.20;;;;;;4985562;28;20058;-74
2021/03/18 11:47:19;;;;;;;2.47;0.70;;;15.90;58.30;;;;;;4978126;28;20559;-75
2021/03/18 11:49:47;;;;;;;0.93;0.40;;;16.00;57.80;;;;;;4974919;28;20123;-76
2021/03/18 11:52:14;;;;;;;0.90;0.20;;;16.00;57.60;;;;;;4973836;28;20064;-75
2021/03/18 11:54:42;;;;;;;0.60;0.30;;;16.00;57.30;;;;;;4976268;28;20093;-75
2021/03/18 11:57:09;;;;;;;1.75;0.50;;;16.10;57.10;;;;;;5008502;28;20504;-75
2021/03/18 11:59:37;;;;;;;1.17;0.50;;;16.00;56.70;;;;;;4979661;28;20377;-75
2021/03/18 12:02:05;;;;;;;0.30;0.20;;;15.90;56.90;;;;;;4980866;28;20177;-76
2021/03/18 12:04:33;;;;;;;1.67;0.40;;;15.50;57.30;;;;;;4980524;28;20042;-80
2021/03/18 12:07:00;;;;;;;0.50;0.20;;;15.30;56.80;;;;;;4983776;28;20416;-78
2021/03/18 12:09:27;;;;;;;2.70;0.55;;;15.30;57.20;;;;;;4978972;28;20050;-79
2021/03/18 12:11:55;;;;;;;1.63;0.40;;;15.10;56.70;;;;;;4980539;28;20046;-77
2021/03/18 12:14:22;;;;;;;3.13;0.38;;;15.10;56.80;;;;;;4981591;28;20061;-77
2021/03/18 12:16:49;;;;;;;1.52;0.82;;;15.20;57.30;;;;;;4976257;28;20149;-79
2021/03/18 12:19:18;;;;;;;1.40;0.60;;;15.10;57.80;;;;;;4981212;28;20113;-76
2021/03/18 12:21:45;;;;;;;0.65;0.40;;;15.00;57.60;;;;;;4974615;28;20042;-77
2021/03/18 12:24:13;;;;;;;0.57;0.30;;;14.90;58.00;;;;;;4978442;28;20042;-76
2021/03/18 12:26:40;;;;;;;0.63;0.20;;;14.90;57.90;;;;;;4978549;28;20102;-77
2021/03/18 12:29:08;;;;;;;0.55;0.30;;;14.90;58.40;;;;;;4974973;28;20054;-76
2021/03/18 12:31:35;;;;;;;0.30;0.20;;;14.70;57.30;;;;;;4978002;28;20042;-76
2021/03/18 12:34:03;;;;;;;1.08;0.20;;;14.60;57.10;;;;;;4980626;28;20062;-73
2021/03/18 12:36:31;;;;;;;0.95;0.30;;;14.70;57.90;;;;;;4979532;28;20050;-73
2021/03/18 12:38:59;;;;;;;0.82;0.25;;;14.70;57.00;;;;;;4992198;28;20512;-74
2021/03/18 12:41:29;;;;;;;0.73;0.40;;;14.90;57.10;;;;;;4976841;28;20053;-73
2021/03/18 12:43:57;;;;;;;0.77;0.30;;;15.10;56.80;;;;;;4994791;28;20623;-74
2021/03/18 12:46:24;;;;;;;0.55;0.32;;;15.00;56.60;;;;;;4978231;28;20044;-74
2021/03/18 12:48:52;;;;;;;0.70;0.45;;;14.90;57.30;;;;;;4981474;28;20649;-74
2021/03/18 12:51:19;;;;;;;1.27;0.30;;;15.00;55.70;;;;;;5004366;28;20069;-74
2021/03/18 12:53:48;;;;;;;1.45;0.38;;;15.30;56.10;;;;;;4980146;28;20093;-74
2021/03/18 12:56:15;;;;;;;1.13;0.30;;;15.40;55.40;;;;;;4989886;28;20046;-74
2021/03/18 12:58:42;;;;;;;0.60;0.22;;;15.30;55.50;;;;;;5010977;28;20046;-74
2021/03/18 13:01:10;;;;;;;1.00;0.50;;;15.40;56.00;;;;;;4975635;28;20046;-74
2021/03/18 13:03:38;;;;;;;0.82;0.50;;;15.40;56.10;;;;;;4973851;28;20149;-74
2021/03/18 13:06:06;;;;;;;1.67;0.40;;;15.20;55.00;;;;;;4989197;28;20030;-75
2021/03/18 13:08:34;;;;;;;0.63;0.30;;;15.00;54.90;;;;;;4964782;28;20046;-75